createdAt,value
2022-10-11T00:00:11.555Z,4.31
2022-10-11T00:02:38.158Z,4.29
2022-10-11T00:05:05.131Z,4.21
2022-10-11T00:07:32.016Z,4.23
2022-10-11T00:09:58.659Z,4.25
2022-10-11T00:12:25.229Z,4.19
2022-10-11T00:14:52.993Z,4.24
2022-10-11T00:17:19.641Z,4.23
2022-10-11T00:19:46.510Z,4.23
2022-10-11T00:22:13.148Z,4.25
2022-10-11T00:24:39.770Z,4.34
2022-10-11T00:27:06.381Z,4.30
2022-10-11T00:29:33.064Z,4.25
2022-10-11T00:31:59.775Z,4.21
2022-10-11T00:34:26.398Z,4.16
2022-10-11T00:36:54.555Z,4.13
2022-10-11T00:39:21.154Z,4.11
2022-10-11T00:41:49.951Z,4.06
2022-10-11T00:44:20.327Z,4.03
2022-10-11T00:46:56.013Z,3.90
2022-10-11T00:49:27.579Z,3.95
2022-10-11T00:52:29.206Z,3.90
2022-10-11T00:54:58.478Z,3.85
2022-10-11T00:57:28.040Z,3.81
2022-10-11T00:59:56.103Z,3.67
2022-10-11T01:02:24.749Z,3.82
2022-10-11T01:05:11.386Z,3.79
2022-10-11T01:07:40.115Z,3.64
2022-10-11T01:10:06.877Z,3.47
2022-10-11T01:12:33.883Z,3.65
2022-10-11T01:15:06.373Z,3.68
2022-10-11T01:17:53.178Z,3.64
2022-10-11T01:20:35.360Z,3.62
2022-10-11T01:23:07.847Z,3.61
2022-10-11T01:26:07.931Z,3.63
2022-10-11T01:29:02.135Z,3.57
2022-10-11T01:31:45.015Z,3.53
2022-10-11T01:34:17.167Z,3.51
2022-10-11T01:37:13.168Z,3.39
2022-10-11T01:39:59.664Z,3.39
2022-10-11T01:42:28.220Z,3.46
2022-10-11T01:44:56.889Z,3.39
2022-10-11T01:47:24.945Z,3.40
2022-10-11T01:49:56.617Z,3.41
2022-10-11T01:52:23.550Z,3.43
2022-10-11T01:55:09.292Z,3.35
2022-10-11T01:58:01.404Z,3.35
2022-10-11T02:00:35.895Z,3.30
2022-10-11T02:03:25.235Z,3.28
2022-10-11T02:06:01.367Z,3.21
2022-10-11T02:08:37.747Z,3.22
2022-10-11T02:11:22.165Z,3.11
2022-10-11T02:14:00.385Z,3.16
2022-10-11T02:16:37.227Z,3.17
2022-10-11T02:19:06.255Z,3.16
2022-10-11T02:21:36.311Z,3.15
2022-10-11T02:24:11.500Z,3.11
2022-10-11T02:26:42.083Z,3.12
2022-10-11T02:29:12.155Z,3.08
2022-10-11T02:31:40.211Z,3.12
2022-10-11T02:34:15.261Z,3.03
2022-10-11T02:36:51.930Z,3.12
2022-10-11T02:39:35.666Z,3.04
2022-10-11T02:42:06.885Z,3.02
2022-10-11T02:44:39.837Z,3.05
2022-10-11T02:47:08.193Z,3.01
2022-10-11T02:49:35.048Z,3.00
2022-10-11T02:52:05.045Z,2.91
2022-10-11T02:54:32.296Z,2.89
2022-10-11T02:56:58.872Z,2.93
2022-10-11T02:59:25.474Z,2.89
2022-10-11T03:01:52.124Z,2.82
2022-10-11T03:04:18.791Z,2.83
2022-10-11T03:06:45.386Z,2.88
2022-10-11T03:09:12.003Z,2.78
2022-10-11T03:11:38.561Z,2.60
2022-10-11T03:14:05.150Z,2.85
2022-10-11T03:16:32.323Z,2.87
2022-10-11T03:18:58.909Z,2.80
2022-10-11T03:21:25.518Z,2.83
2022-10-11T03:23:52.889Z,2.78
2022-10-11T03:26:19.547Z,2.67
2022-10-11T03:28:46.186Z,2.83
2022-10-11T03:31:12.926Z,2.82
2022-10-11T03:33:39.508Z,2.76
2022-10-11T03:36:07.019Z,2.77
2022-10-11T03:38:33.991Z,2.78
2022-10-11T03:41:02.437Z,2.68
2022-10-11T03:43:29.075Z,2.81
2022-10-11T03:45:55.736Z,2.72
2022-10-11T03:48:22.451Z,2.84
2022-10-11T03:50:49.604Z,2.87
2022-10-11T03:53:16.287Z,2.88
2022-10-11T03:55:42.890Z,2.78
2022-10-11T03:58:09.575Z,2.93
2022-10-11T04:00:37.399Z,2.85
2022-10-11T04:03:04.183Z,2.94
2022-10-11T04:05:31.408Z,3.02
2022-10-11T04:07:58.414Z,2.99
2022-10-11T04:10:25.082Z,3.05
2022-10-11T04:12:51.655Z,3.05
2022-10-11T04:15:19.218Z,3.07
2022-10-11T04:17:45.815Z,3.11
2022-10-11T04:20:12.494Z,3.09
2022-10-11T04:22:39.405Z,3.08
2022-10-11T04:25:07.088Z,3.11
2022-10-11T04:27:33.797Z,3.15
2022-10-11T04:30:01.263Z,3.17
2022-10-11T04:32:27.893Z,3.23
2022-10-11T04:34:54.499Z,3.27
2022-10-11T04:37:21.133Z,3.27
2022-10-11T04:39:50.245Z,3.25
2022-10-11T04:42:16.954Z,3.41
2022-10-11T04:44:44.338Z,3.46
2022-10-11T04:47:11.502Z,3.50
2022-10-11T04:49:38.218Z,3.51
2022-10-11T04:52:05.742Z,3.52
2022-10-11T04:54:32.356Z,3.57
2022-10-11T04:56:58.975Z,3.61
2022-10-11T04:59:25.619Z,3.67
2022-10-11T05:01:52.249Z,3.67
2022-10-11T05:04:18.814Z,3.69
2022-10-11T05:06:46.222Z,3.76
2022-10-11T05:09:13.297Z,3.57
2022-10-11T05:11:39.875Z,3.80
2022-10-11T05:14:07.512Z,3.82
2022-10-11T05:16:34.461Z,3.86
2022-10-11T05:19:01.068Z,3.77
2022-10-11T05:21:29.680Z,3.93
2022-10-11T05:23:57.136Z,3.96
2022-10-11T05:26:25.916Z,3.77
2022-10-11T05:28:52.998Z,4.09
2022-10-11T05:31:20.231Z,4.12
2022-10-11T05:33:46.936Z,4.16
2022-10-11T05:36:14.255Z,4.18
2022-10-11T05:38:41.575Z,4.24
2022-10-11T05:41:11.576Z,4.31
2022-10-11T05:43:38.562Z,4.40
2022-10-11T05:46:05.788Z,4.04
2022-10-11T05:48:32.807Z,4.54
2022-10-11T05:51:04.295Z,4.55
2022-10-11T05:53:31.420Z,4.62
2022-10-11T05:55:58.735Z,4.64
2022-10-11T05:58:26.112Z,4.70
2022-10-11T06:00:52.880Z,4.80
2022-10-11T06:03:21.102Z,4.91
2022-10-11T06:05:52.125Z,4.94
2022-10-11T06:08:21.266Z,4.95
2022-10-11T06:10:47.824Z,5.06
2022-10-11T06:13:14.420Z,5.12
2022-10-11T06:15:40.999Z,5.25
2022-10-11T06:18:07.710Z,5.31
2022-10-11T06:20:35.369Z,5.38
2022-10-11T06:23:01.970Z,5.35
2022-10-11T06:25:28.626Z,5.52
2022-10-11T06:27:56.625Z,5.55
2022-10-11T06:30:23.345Z,5.47
2022-10-11T06:32:49.899Z,5.61
2022-10-11T06:35:17.294Z,5.61
2022-10-11T06:37:43.860Z,5.77
2022-10-11T06:40:11.980Z,5.84
2022-10-11T06:42:41.411Z,5.66
2022-10-11T06:45:08.374Z,5.93
2022-10-11T06:47:34.931Z,5.80
2022-10-11T06:50:01.656Z,6.11
2022-10-11T06:52:28.207Z,6.19
2022-10-11T06:54:54.765Z,6.28
2022-10-11T06:57:21.668Z,6.38
2022-10-11T06:59:48.313Z,6.46
2022-10-11T07:02:14.943Z,6.51
2022-10-11T07:04:42.351Z,6.49
2022-10-11T07:07:08.897Z,6.59
2022-10-11T07:09:35.545Z,6.68
2022-10-11T07:12:02.926Z,6.79
2022-10-11T07:14:29.659Z,6.90
2022-10-11T07:16:57.455Z,6.96
2022-10-11T07:19:24.049Z,6.90
2022-10-11T07:21:50.620Z,7.11
2022-10-11T07:24:17.287Z,7.31
2022-10-11T07:26:44.650Z,7.41
2022-10-11T07:29:11.958Z,7.42
2022-10-11T07:31:41.228Z,7.56
2022-10-11T07:34:08.166Z,7.55
2022-10-11T07:36:35.133Z,7.74
2022-10-11T07:39:05.076Z,7.83
2022-10-11T07:41:31.772Z,7.78
2022-10-11T07:43:58.332Z,8.11
2022-10-11T07:46:24.989Z,8.15
2022-10-11T07:48:54.079Z,8.39
2022-10-11T07:51:22.852Z,8.45
2022-10-11T07:53:52.304Z,8.57
2022-10-11T07:56:22.788Z,8.66
2022-10-11T07:58:51.600Z,8.77
2022-10-11T08:01:18.937Z,8.73
2022-10-11T08:03:46.485Z,8.94
2022-10-11T08:06:15.388Z,8.89
2022-10-11T08:08:42.301Z,9.18
2022-10-11T08:11:09.711Z,9.29
2022-10-11T08:13:36.933Z,9.41
2022-10-11T08:16:11.827Z,9.55
2022-10-11T08:18:38.531Z,9.68
2022-10-11T08:21:10.030Z,9.77
2022-10-11T08:23:37.643Z,9.91
2022-10-11T08:26:04.855Z,10.08
2022-10-11T08:28:32.115Z,10.21
2022-10-11T08:31:02.110Z,10.24
2022-10-11T08:33:28.807Z,10.35
2022-10-11T08:35:57.147Z,10.46
2022-10-11T08:38:24.847Z,10.41
2022-10-11T08:40:59.621Z,10.65
2022-10-11T08:43:47.711Z,10.84
2022-10-11T08:46:15.673Z,10.86
2022-10-11T08:48:46.138Z,10.95
2022-10-11T08:51:24.669Z,11.09
2022-10-11T08:54:11.001Z,11.21
2022-10-11T08:56:41.623Z,11.33
2022-10-11T08:59:20.076Z,11.51
2022-10-11T09:01:53.300Z,12.67
2022-10-11T09:04:20.063Z,14.60
2022-10-11T09:07:05.281Z,16.14
2022-10-11T09:09:56.288Z,17.09
2022-10-11T09:12:42.926Z,17.77
2022-10-11T09:15:27.967Z,18.35
2022-10-11T09:18:15.267Z,19.03
2022-10-11T09:20:56.133Z,18.48
2022-10-11T09:23:59.431Z,18.96
2022-10-11T09:26:31.312Z,18.28
2022-10-11T09:29:07.839Z,17.20
2022-10-11T09:31:34.671Z,16.84
2022-10-11T09:34:11.950Z,16.69
2022-10-11T09:37:07.111Z,16.63
2022-10-11T09:39:41.854Z,16.10
2022-10-11T09:42:12.194Z,15.30
2022-10-11T09:44:57.649Z,14.83
2022-10-11T09:47:29.497Z,14.80
2022-10-11T09:50:26.303Z,14.49
2022-10-11T09:52:54.045Z,14.62
2022-10-11T09:55:34.008Z,16.07
2022-10-11T09:58:00.794Z,17.81
2022-10-11T10:00:32.387Z,18.78
2022-10-11T10:03:02.165Z,20.88
2022-10-11T10:05:31.877Z,21.72
2022-10-11T10:08:10.314Z,19.53
2022-10-11T10:10:40.976Z,17.07
2022-10-11T10:13:25.764Z,15.36
2022-10-11T10:15:55.444Z,14.73
2022-10-11T10:18:37.513Z,14.23
2022-10-11T10:21:14.579Z,13.99
2022-10-11T10:23:43.038Z,14.30
2022-10-11T10:26:14.852Z,14.75
2022-10-11T10:29:21.946Z,19.20
2022-10-11T10:32:13.258Z,19.72
2022-10-11T10:34:38.501Z,17.96
2022-10-11T10:37:25.360Z,16.41
2022-10-11T10:40:18.052Z,15.71
2022-10-11T10:42:44.665Z,15.93
2022-10-11T10:45:21.238Z,16.59
2022-10-11T10:48:01.081Z,18.70
2022-10-11T10:50:49.000Z,21.16
2022-10-11T10:53:22.434Z,24.28
2022-10-11T10:55:59.865Z,26.06
2022-10-11T10:58:51.039Z,26.49
2022-10-11T11:01:20.457Z,25.90
2022-10-11T11:03:52.131Z,24.27
2022-10-11T11:06:36.893Z,22.66
2022-10-11T11:09:12.031Z,21.70
2022-10-11T11:11:44.543Z,20.20
2022-10-11T11:14:33.719Z,19.00
2022-10-11T11:17:00.237Z,18.43
2022-10-11T11:19:45.134Z,18.02
2022-10-11T11:22:14.723Z,17.10
2022-10-11T11:24:58.077Z,16.37
2022-10-11T11:27:53.290Z,16.26
2022-10-11T11:30:42.147Z,16.09
2022-10-11T11:33:20.818Z,16.37
2022-10-11T11:35:53.195Z,16.05
2022-10-11T11:38:34.493Z,15.65
2022-10-11T11:41:09.260Z,15.39
2022-10-11T11:44:09.665Z,15.14
2022-10-11T11:46:44.300Z,14.92
2022-10-11T11:49:20.881Z,14.51
2022-10-11T11:51:48.747Z,14.16
2022-10-11T11:54:15.255Z,14.12
2022-10-11T11:57:04.148Z,14.01
2022-10-11T11:59:40.209Z,13.87
2022-10-11T12:02:39.918Z,13.66
2022-10-11T12:05:08.355Z,13.43
2022-10-11T12:07:50.845Z,13.50
2022-10-11T12:10:29.407Z,13.38
2022-10-11T12:13:32.250Z,13.32
2022-10-11T12:16:01.668Z,13.29
2022-10-11T12:18:31.993Z,13.09
2022-10-11T12:21:17.056Z,12.97
2022-10-11T12:23:52.600Z,12.97
2022-10-11T12:26:28.216Z,12.89
2022-10-11T12:29:47.265Z,12.77
2022-10-11T12:32:29.070Z,12.77
2022-10-11T12:35:34.292Z,12.74
2022-10-11T12:38:03.977Z,12.68
2022-10-11T12:40:39.800Z,12.60
2022-10-11T12:43:26.410Z,12.56
2022-10-11T12:45:53.945Z,12.57
2022-10-11T12:48:50.915Z,12.57
2022-10-11T12:51:42.612Z,12.60
2022-10-11T12:54:29.933Z,12.60
2022-10-11T12:57:01.319Z,12.62
2022-10-11T12:59:31.250Z,12.48
2022-10-11T13:01:59.920Z,12.53
2022-10-11T13:04:33.361Z,12.50
2022-10-11T13:07:11.795Z,12.55
2022-10-11T13:09:41.588Z,12.47
2022-10-11T13:12:16.058Z,12.46
2022-10-11T13:14:45.680Z,12.41
2022-10-11T13:17:24.835Z,12.48
2022-10-11T13:20:10.297Z,12.47
2022-10-11T13:22:39.871Z,12.23
2022-10-11T13:25:08.485Z,12.39
2022-10-11T13:27:37.768Z,12.33
2022-10-11T13:30:11.383Z,12.28
2022-10-11T13:32:38.054Z,12.18
2022-10-11T13:35:20.969Z,12.30
2022-10-11T13:37:50.582Z,12.22
2022-10-11T13:40:20.810Z,12.12
2022-10-11T13:42:50.776Z,12.09
2022-10-11T13:45:20.881Z,12.13
2022-10-11T13:47:50.001Z,12.11
2022-10-11T13:50:19.430Z,12.12
2022-10-11T13:53:01.172Z,12.13
2022-10-11T13:55:55.090Z,12.08
2022-10-11T13:58:26.139Z,12.05
2022-10-11T14:01:27.114Z,11.88
2022-10-11T14:04:01.688Z,12.05
2022-10-11T14:06:56.645Z,11.90
2022-10-11T14:09:36.463Z,11.94
2022-10-11T14:12:35.726Z,11.88
2022-10-11T14:15:07.452Z,11.69
2022-10-11T14:17:45.091Z,11.70
2022-10-11T14:20:12.702Z,11.64
2022-10-11T14:22:39.514Z,11.57
2022-10-11T14:25:06.415Z,11.58
2022-10-11T14:27:34.790Z,11.50
2022-10-11T14:30:26.067Z,11.45
2022-10-11T14:32:50.475Z,11.43
2022-10-11T14:35:20.941Z,11.44
2022-10-11T14:37:47.556Z,11.39
2022-10-11T14:40:18.633Z,11.35
2022-10-11T14:42:47.158Z,11.30
2022-10-11T14:45:13.972Z,11.21
2022-10-11T14:47:43.107Z,11.08
2022-10-11T14:50:28.021Z,10.93
2022-10-11T14:52:55.178Z,10.81
2022-10-11T14:55:22.054Z,10.74
2022-10-11T14:57:48.723Z,10.67
2022-10-11T15:00:20.439Z,10.69
2022-10-11T15:02:47.252Z,10.75
2022-10-11T15:05:13.930Z,10.60
2022-10-11T15:07:41.314Z,10.77
2022-10-11T15:10:16.930Z,10.79
2022-10-11T15:12:44.295Z,10.75
2022-10-11T15:15:14.733Z,10.87
2022-10-11T15:17:43.390Z,10.88
2022-10-11T15:20:20.547Z,10.84
2022-10-11T15:22:47.256Z,10.83
2022-10-11T15:25:14.031Z,10.88
2022-10-11T15:27:42.603Z,10.89
2022-10-11T15:30:16.722Z,10.89
2022-10-11T15:32:44.571Z,10.87
2022-10-11T15:35:11.590Z,10.82
2022-10-11T15:37:38.622Z,10.70
2022-10-11T15:40:23.589Z,10.74
2022-10-11T15:42:51.921Z,10.62
2022-10-11T15:45:19.792Z,10.65
2022-10-11T15:47:47.627Z,10.66
2022-10-11T15:50:33.759Z,10.63
2022-10-11T15:53:09.863Z,10.37
2022-10-11T15:55:40.640Z,10.62
2022-10-11T15:58:17.341Z,10.60
2022-10-11T16:00:45.837Z,10.62
2022-10-11T16:03:14.523Z,10.63
2022-10-11T16:05:42.010Z,10.62
2022-10-11T16:08:09.801Z,10.52
2022-10-11T16:10:37.210Z,10.57
2022-10-11T16:13:05.391Z,10.56
2022-10-11T16:15:32.059Z,10.50
2022-10-11T16:17:58.687Z,10.52
2022-10-11T16:20:25.913Z,10.43
2022-10-11T16:22:54.435Z,10.36
2022-10-11T16:25:21.983Z,10.26
2022-10-11T16:27:49.604Z,10.20
2022-10-11T16:30:18.692Z,10.15
2022-10-11T16:32:45.634Z,10.03
2022-10-11T16:35:14.725Z,9.83
2022-10-11T16:37:41.833Z,9.91
2022-10-11T16:40:11.105Z,9.82
2022-10-11T16:42:39.208Z,9.78
2022-10-11T16:45:07.029Z,9.62
2022-10-11T16:47:33.811Z,9.58
2022-10-11T16:50:01.358Z,9.61
2022-10-11T16:52:28.096Z,9.56
2022-10-11T16:54:54.645Z,9.53
2022-10-11T16:57:21.370Z,9.53
2022-10-11T16:59:48.682Z,9.50
2022-10-11T17:02:21.655Z,9.62
2022-10-11T17:04:51.736Z,9.65
2022-10-11T17:07:19.722Z,9.67
2022-10-11T17:09:48.661Z,9.68
2022-10-11T17:12:19.472Z,9.73
2022-10-11T17:14:46.529Z,9.73
2022-10-11T17:17:13.583Z,9.77
2022-10-11T17:19:45.002Z,9.83
2022-10-11T17:22:14.193Z,9.83
2022-10-11T17:24:40.873Z,9.83
2022-10-11T17:27:07.823Z,9.78
2022-10-11T17:29:34.653Z,9.83
2022-10-11T17:32:01.753Z,9.77
2022-10-11T17:34:28.598Z,9.79
2022-10-11T17:36:55.428Z,9.81
2022-10-11T17:39:23.660Z,9.80
2022-10-11T17:41:50.511Z,9.60
2022-10-11T17:44:18.972Z,9.80
2022-10-11T17:46:46.213Z,9.75
2022-10-11T17:49:16.571Z,9.75
2022-10-11T17:51:46.178Z,9.74
2022-10-11T17:54:13.195Z,9.73
2022-10-11T17:56:43.021Z,9.78
2022-10-11T17:59:16.123Z,9.53
2022-10-11T18:01:43.302Z,9.71
2022-10-11T18:04:19.168Z,9.74
2022-10-11T18:06:47.455Z,9.72
2022-10-11T18:09:16.414Z,9.74
2022-10-11T18:11:43.134Z,9.77
2022-10-11T18:14:09.824Z,9.77
2022-10-11T18:16:37.811Z,9.71
2022-10-11T18:19:06.645Z,9.76
2022-10-11T18:21:35.090Z,9.73
2022-10-11T18:24:05.580Z,9.67
2022-10-11T18:26:32.431Z,9.73
2022-10-11T18:28:59.878Z,9.77
2022-10-11T18:31:29.894Z,9.78
2022-10-11T18:33:56.925Z,9.78
2022-10-11T18:36:27.943Z,9.76
2022-10-11T18:38:58.369Z,9.74
2022-10-11T18:41:30.912Z,9.77
2022-10-11T18:44:03.245Z,9.75
2022-10-11T18:46:30.682Z,9.75
2022-10-11T18:48:59.928Z,9.74
2022-10-11T18:51:37.893Z,9.71
2022-10-11T18:54:06.859Z,9.75
2022-10-11T18:56:36.509Z,9.77
2022-10-11T18:59:04.371Z,9.77
2022-10-11T19:01:35.260Z,9.74
2022-10-11T19:04:03.327Z,9.73
2022-10-11T19:06:39.466Z,9.78
2022-10-11T19:09:07.117Z,9.73
2022-10-11T19:11:34.159Z,9.63
2022-10-11T19:14:14.698Z,9.60
2022-10-11T19:16:45.564Z,9.54
2022-10-11T19:19:13.344Z,9.56
2022-10-11T19:21:41.007Z,9.57
2022-10-11T19:24:08.343Z,9.40
2022-10-11T19:26:38.299Z,9.53
2022-10-11T19:29:19.821Z,9.53
2022-10-11T19:31:52.644Z,9.49
2022-10-11T19:34:19.904Z,9.29
2022-10-11T19:36:48.736Z,9.38
2022-10-11T19:39:17.091Z,9.41
2022-10-11T19:41:45.377Z,9.36
2022-10-11T19:44:15.519Z,9.26
2022-10-11T19:47:02.746Z,9.30
2022-10-11T19:49:29.307Z,9.24
2022-10-11T19:51:55.977Z,9.34
2022-10-11T19:54:22.759Z,9.30
2022-10-11T19:56:50.068Z,9.13
2022-10-11T19:59:16.837Z,9.26
2022-10-11T20:01:46.823Z,9.28
2022-10-11T20:04:39.619Z,9.16
2022-10-11T20:07:04.784Z,9.38
2022-10-11T20:09:32.211Z,9.35
2022-10-11T20:11:58.989Z,9.28
2022-10-11T20:14:25.748Z,9.30
2022-10-11T20:16:55.638Z,9.31
2022-10-11T20:19:27.791Z,9.32
2022-10-11T20:21:56.951Z,9.34
2022-10-11T20:24:23.550Z,9.30
2022-10-11T20:26:50.113Z,9.32
2022-10-11T20:29:17.722Z,9.31
2022-10-11T20:31:44.320Z,9.29
2022-10-11T20:34:11.368Z,9.18
2022-10-11T20:36:39.135Z,9.19
2022-10-11T20:39:06.661Z,9.24
2022-10-11T20:41:37.300Z,9.25
2022-10-11T20:44:05.133Z,9.23
2022-10-11T20:46:37.600Z,9.23
2022-10-11T20:49:10.486Z,9.20
2022-10-11T20:51:38.873Z,9.18
2022-10-11T20:54:05.824Z,9.15
2022-10-11T20:56:33.849Z,9.10
2022-10-11T20:59:00.874Z,9.13
2022-10-11T21:01:30.310Z,9.16
2022-10-11T21:03:58.326Z,9.16
2022-10-11T21:06:25.559Z,9.16
2022-10-11T21:08:54.850Z,8.87
2022-10-11T21:11:21.474Z,9.13
2022-10-11T21:13:48.020Z,9.12
2022-10-11T21:16:16.016Z,9.16
2022-10-11T21:18:43.177Z,9.15
2022-10-11T21:21:12.742Z,9.03
2022-10-11T21:23:40.093Z,9.04
2022-10-11T21:26:11.209Z,9.06
2022-10-11T21:28:38.695Z,8.99
2022-10-11T21:31:11.392Z,8.92
2022-10-11T21:33:38.967Z,8.91
2022-10-11T21:36:10.796Z,8.84
2022-10-11T21:38:37.806Z,8.65
2022-10-11T21:41:17.067Z,8.77
2022-10-11T21:43:45.000Z,8.73
2022-10-11T21:46:15.333Z,8.70
2022-10-11T21:48:42.238Z,8.16
2022-10-11T21:51:19.724Z,8.66
2022-10-11T21:53:46.333Z,8.46
2022-10-11T21:56:12.922Z,8.57
2022-10-11T21:58:39.610Z,8.59
2022-10-11T22:01:06.340Z,8.59
2022-10-11T22:03:33.076Z,8.58
2022-10-11T22:06:03.464Z,8.54
2022-10-11T22:08:30.367Z,8.49
2022-10-11T22:10:58.824Z,8.46
2022-10-11T22:13:27.274Z,8.57
2022-10-11T22:15:57.050Z,8.51
2022-10-11T22:18:24.542Z,8.56
2022-10-11T22:20:51.503Z,8.50
2022-10-11T22:23:19.916Z,8.57
2022-10-11T22:25:46.534Z,8.56
2022-10-11T22:28:13.387Z,8.53
2022-10-11T22:30:40.070Z,8.42
2022-10-11T22:33:06.630Z,8.51
2022-10-11T22:35:37.388Z,8.46
2022-10-11T22:38:07.331Z,8.49
2022-10-11T22:40:35.416Z,8.46
2022-10-11T22:43:02.072Z,8.43
2022-10-11T22:45:29.428Z,8.40
2022-10-11T22:47:56.021Z,8.34
2022-10-11T22:50:22.689Z,8.26
2022-10-11T22:52:49.352Z,8.18
2022-10-11T22:55:19.899Z,8.15
2022-10-11T22:57:46.911Z,8.02
2022-10-11T23:00:13.836Z,8.10
2022-10-11T23:02:40.550Z,8.07
2022-10-11T23:05:07.453Z,7.98
2022-10-11T23:07:34.241Z,7.98
2022-10-11T23:10:01.282Z,7.92
2022-10-11T23:12:27.882Z,7.96
2022-10-11T23:14:55.377Z,7.93
2022-10-11T23:17:22.080Z,7.82
2022-10-11T23:19:48.681Z,7.91
2022-10-11T23:22:16.861Z,7.89
2022-10-11T23:24:43.434Z,7.86
2022-10-11T23:27:10.639Z,7.84
2022-10-11T23:29:41.855Z,7.79
2022-10-11T23:32:09.619Z,7.69
2022-10-11T23:34:37.031Z,7.79
2022-10-11T23:37:04.638Z,7.79
2022-10-11T23:39:31.274Z,7.80
2022-10-11T23:41:57.978Z,7.78
2022-10-11T23:44:25.404Z,7.80
2022-10-11T23:46:52.187Z,7.82
2022-10-11T23:49:18.762Z,7.83
2022-10-11T23:51:46.153Z,7.84
2022-10-11T23:54:12.739Z,7.79
2022-10-11T23:56:39.312Z,7.81
2022-10-11T23:59:06.006Z,7.78
